Time;durP1;ratioP1;P1;durP2;ratioP2;P2;SDS_P1;SDS_P2;PMS_P1;PMS_P2;Temp;Humidity;BMP_temperature;BMP_pressure;BME280_temperature;BME280_humidity;BME280_pressure;Samples;Min_cycle;Max_cycle;Signal;HPM_P1;HPM_P2
2023/09/28 00:00:43;;;;;;;;;;;;;;;23.27;40.86;101205.63;7399500;19;1736;-40
2023/09/28 00:03:09;;;;;;;;;;;;;;;23.32;40.60;101200.63;7399169;19;1629;-40
2023/09/28 00:05:38;;;;;;;;;;;;;;;23.38;40.57;101208.09;7398481;19;1531;-48
2023/09/28 00:08:07;;;;;;;;;;;;;;;23.34;40.78;101212.09;7383396;19;1348;-40
2023/09/28 00:10:33;;;;;;;;;;;;;;;23.29;40.82;101203.59;7399135;19;1672;-40
2023/09/28 00:13:04;;;;;;;;;;;;;;;23.30;40.72;101212.53;7396278;19;1440;-40
2023/09/28 00:15:30;;;;;;;;;;;;;;;23.26;40.68;101209.34;7397550;19;1663;-40
2023/09/28 00:17:58;;;;;;;;;;;;;;;23.26;40.58;101212.03;7398495;19;1470;-39
2023/09/28 00:20:28;;;;;;;;;;;;;;;23.20;40.86;101209.94;7397090;19;1857;-40
2023/09/28 00:22:54;;;;;;;;;;;;;;;23.23;41.00;101201.53;7398860;19;1593;-40
2023/09/28 00:25:23;;;;;;;;;;;;;;;23.24;40.77;101211.34;7398961;19;1656;-40
2023/09/28 00:27:50;;;;;;;;;;;;;;;23.26;40.71;101222.81;7400604;19;1579;-40
2023/09/28 00:30:22;;;;;;;;;;;;;;;23.24;41.06;101214.03;7399190;19;1542;-40
2023/09/28 00:32:48;;;;;;;;;;;;;;;23.26;40.77;101212.03;7399158;19;1475;-39
2023/09/28 00:35:17;;;;;;;;;;;;;;;23.23;40.97;101226.66;7398381;19;1924;-40
2023/09/28 00:37:42;;;;;;;;;;;;;;;23.17;40.84;101200.28;7397824;19;1585;-40
2023/09/28 00:40:17;;;;;;;;;;;;;;;23.21;41.08;101206.22;7395466;19;1838;-39
2023/09/28 00:42:43;;;;;;;;;;;;;;;23.15;41.17;101223.88;7398525;19;1564;-40
2023/09/28 00:45:12;;;;;;;;;;;;;;;23.20;41.39;101200.00;7394194;19;1650;-40
2023/09/28 00:47:41;;;;;;;;;;;;;;;23.25;41.09;101207.63;7397382;19;1396;-40
2023/09/28 00:50:14;;;;;;;;;;;;;;;23.27;41.01;101204.78;7398487;19;1541;-40
2023/09/28 00:52:40;;;;;;;;;;;;;;;23.29;40.83;101209.00;7396341;19;1383;-39
2023/09/28 00:55:10;;;;;;;;;;;;;;;23.21;40.92;101204.38;7396461;19;1261;-40
2023/09/28 00:57:35;;;;;;;;;;;;;;;23.20;40.99;101220.75;7397396;19;1330;-40
2023/09/28 01:00:16;;;;;;;;;;;;;;;23.12;41.00;101207.13;7395237;19;1865;-40
2023/09/28 01:02:45;;;;;;;;;;;;;;;23.06;40.93;101218.53;7395341;19;1982;-40
2023/09/28 01:05:13;;;;;;;;;;;;;;;23.06;41.33;101213.13;7396398;19;1403;-40
2023/09/28 01:07:39;;;;;;;;;;;;;;;23.10;41.00;101210.00;7383709;19;1327;-41
2023/09/28 01:10:09;;;;;;;;;;;;;;;23.16;41.05;101211.25;7394937;19;1654;-40
2023/09/28 01:12:38;;;;;;;;;;;;;;;23.11;40.87;101211.69;7396041;19;1500;-40
2023/09/28 01:15:09;;;;;;;;;;;;;;;23.12;41.07;101218.78;7396496;19;1206;-40
2023/09/28 01:17:35;;;;;;;;;;;;;;;23.10;40.89;101209.13;7393802;19;1432;-39
2023/09/28 01:20:10;;;;;;;;;;;;;;;23.08;41.04;101221.94;7394175;19;1849;-37
2023/09/28 01:22:38;;;;;;;;;;;;;;;22.99;41.23;101205.63;7396041;19;1343;-37
2023/09/28 01:25:08;;;;;;;;;;;;;;;23.11;40.65;101210.84;7395554;19;1329;-37
2023/09/28 01:27:34;;;;;;;;;;;;;;;23.14;40.93;101218.63;7396827;19;1841;-37
2023/09/28 01:30:03;;;;;;;;;;;;;;;23.15;40.76;101212.25;7397584;19;1571;-37
2023/09/28 01:32:29;;;;;;;;;;;;;;;23.08;40.53;101228.19;7395712;19;1384;-37
2023/09/28 01:34:57;;;;;;;;;;;;;;;22.98;41.00;101217.44;7396962;19;1427;-37
2023/09/28 01:37:29;;;;;;;;;;;;;;;22.96;41.02;101216.72;7396340;19;1308;-37
2023/09/28 01:40:00;;;;;;;;;;;;;;;22.93;40.96;101195.44;7392970;19;1845;-37
2023/09/28 01:42:26;;;;;;;;;;;;;;;22.91;41.04;101210.09;7395069;19;1300;-37
2023/09/28 01:44:54;;;;;;;;;;;;;;;22.98;40.96;101195.84;7396238;19;1592;-37
2023/09/28 01:47:20;;;;;;;;;;;;;;;22.96;41.09;101215.84;7393029;19;2372;-37
2023/09/28 01:49:48;;;;;;;;;;;;;;;23.05;40.99;101206.06;7394775;19;1411;-37
2023/09/28 01:52:14;;;;;;;;;;;;;;;23.06;40.77;101213.13;7396943;19;1410;-37
2023/09/28 01:54:42;;;;;;;;;;;;;;;23.02;40.95;101218.84;7395814;19;1938;-37
2023/09/28 01:57:11;;;;;;;;;;;;;;;23.02;40.83;101208.06;7395001;19;1469;-37
2023/09/28 01:59:39;;;;;;;;;;;;;;;23.03;40.77;101201.66;7392725;19;1838;-37
2023/09/28 02:02:05;;;;;;;;;;;;;;;22.93;40.87;101208.91;7394626;19;1432;-37
2023/09/28 02:04:33;;;;;;;;;;;;;;;22.88;40.80;101208.53;7396154;19;1395;-37
2023/09/28 02:06:59;;;;;;;;;;;;;;;22.89;41.01;101204.84;7394661;19;1342;-37
2023/09/28 02:09:27;;;;;;;;;;;;;;;22.92;40.90;101218.03;7381650;19;1372;-37
2023/09/28 02:11:53;;;;;;;;;;;;;;;22.92;41.04;101212.63;7396276;19;1637;-37
2023/09/28 02:14:24;;;;;;;;;;;;;;;23.00;40.96;101210.03;7396367;19;1661;-37
2023/09/28 02:16:50;;;;;;;;;;;;;;;22.98;40.62;101206.63;7395976;19;1672;-37
2023/09/28 02:19:18;;;;;;;;;;;;;;;22.97;40.85;101198.69;7393250;19;1858;-37
2023/09/28 02:21:44;;;;;;;;;;;;;;;22.98;40.91;101219.28;7394249;19;1609;-37
2023/09/28 02:24:12;;;;;;;;;;;;;;;22.96;41.02;101195.16;7395148;19;1499;-37
2023/09/28 02:26:38;;;;;;;;;;;;;;;22.92;40.71;101185.66;7395671;19;1623;-37
2023/09/28 02:29:06;;;;;;;;;;;;;;;22.90;40.67;101203.84;7395110;19;1879;-37
2023/09/28 02:31:34;;;;;;;;;;;;;;;22.89;40.82;101217.47;7395214;19;1576;-37
2023/09/28 02:34:03;;;;;;;;;;;;;;;22.88;40.74;101200.47;7395029;19;1569;-37
2023/09/28 02:36:31;;;;;;;;;;;;;;;22.90;40.51;101187.66;7396781;19;1494;-37
2023/09/28 02:38:59;;;;;;;;;;;;;;;22.89;40.86;101204.84;7394340;19;1870;-37
2023/09/28 02:41:25;;;;;;;;;;;;;;;22.89;41.13;101204.84;7395699;19;1344;-37
2023/09/28 02:43:54;;;;;;;;;;;;;;;22.95;41.16;101206.91;7394755;19;1683;-37
2023/09/28 02:46:19;;;;;;;;;;;;;;;22.90;40.76;101203.84;7395750;19;1557;-37
2023/09/28 02:48:51;;;;;;;;;;;;;;;22.90;41.07;101203.84;7394311;19;1463;-37
2023/09/28 02:51:17;;;;;;;;;;;;;;;22.90;40.58;101206.53;7394518;19;1743;-37
2023/09/28 02:53:46;;;;;;;;;;;;;;;22.87;40.96;101214.09;7394201;19;1418;-37
2023/09/28 02:56:12;;;;;;;;;;;;;;;22.90;40.93;101203.84;7394926;19;1572;-37
2023/09/28 02:58:40;;;;;;;;;;;;;;;22.94;40.51;101216.03;7395599;19;1845;-37
2023/09/28 03:01:08;;;;;;;;;;;;;;;22.89;40.92;101214.78;7395636;19;1656;-37
2023/09/28 03:03:36;;;;;;;;;;;;;;;22.84;40.88;101209.84;7393380;19;1767;-37
2023/09/28 03:06:05;;;;;;;;;;;;;;;22.82;40.60;101206.44;7393685;19;1790;-37
2023/09/28 03:08:33;;;;;;;;;;;;;;;22.78;40.69;101210.41;7378070;19;1732;-37
2023/09/28 03:10:59;;;;;;;;;;;;;;;22.81;40.78;101224.47;7394930;19;1653;-37
2023/09/28 03:13:28;;;;;;;;;;;;;;;22.75;40.95;101213.44;7394076;19;1362;-37
2023/09/28 03:15:54;;;;;;;;;;;;;;;22.77;40.89;101214.13;7393019;19;1501;-37
2023/09/28 03:18:23;;;;;;;;;;;;;;;22.73;40.84;101223.50;7393431;19;1427;-37
2023/09/28 03:20:48;;;;;;;;;;;;;;;22.75;40.89;101221.53;7390681;19;1839;-37
2023/09/28 03:23:19;;;;;;;;;;;;;;;22.76;40.87;101217.81;7393154;19;1324;-37
2023/09/28 03:25:46;;;;;;;;;;;;;;;22.87;40.86;101225.72;7394292;19;1491;-37
2023/09/28 03:28:14;;;;;;;;;;;;;;;22.90;40.81;101217.34;7394528;19;1511;-37
2023/09/28 03:30:40;;;;;;;;;;;;;;;22.84;40.53;101247.59;7392402;19;1463;-37
2023/09/28 03:33:08;;;;;;;;;;;;;;;22.77;40.43;101230.31;7399692;19;1597;-37
2023/09/28 03:35:36;;;;;;;;;;;;;;;22.90;40.79;101217.34;7400569;19;1415;-37
2023/09/28 03:38:05;;;;;;;;;;;;;;;23.16;41.44;101220.19;7401076;19;1585;-38
2023/09/28 03:40:36;;;;;;;;;;;;;;;23.39;41.36;101228.66;7398326;19;1914;-37
2023/09/28 03:43:05;;;;;;;;;;;;;;;23.55;41.38;101225.28;7398844;19;1803;-37
2023/09/28 03:45:33;;;;;;;;;;;;;;;23.53;41.72;101226.44;7388820;19;1583;-37
2023/09/28 03:48:02;;;;;;;;;;;;;;;23.59;42.13;101233.94;7396453;19;1293;-37
2023/09/28 03:50:30;;;;;;;;;;;;;;;23.56;42.45;101231.56;7395265;19;2060;-37
2023/09/28 03:52:59;;;;;;;;;;;;;;;23.57;42.82;101235.94;7397420;19;1598;-36
2023/09/28 03:55:27;;;;;;;;;;;;;;;23.71;42.82;101248.03;7398075;19;1473;-37
2023/09/28 03:58:01;;;;;;;;;;;;;;;23.81;42.86;101222.69;7400600;19;1633;-37
2023/09/28 04:00:30;;;;;;;;;;;;;;;23.76;42.88;101230.38;7395051;19;1857;-37
2023/09/28 04:02:59;;;;;;;;;;;;;;;23.81;42.55;101247.00;7397641;19;1576;-37
2023/09/28 04:05:27;;;;;;;;;;;;;;;23.89;42.75;101251.59;7397611;19;1570;-37
2023/09/28 04:07:55;;;;;;;;;;;;;;;23.92;42.78;101242.34;7397576;19;1645;-37
2023/09/28 04:10:23;;;;;;;;;;;;;;;24.01;42.79;101257.59;7382110;19;1555;-37
2023/09/28 04:12:52;;;;;;;;;;;;;;;23.93;42.96;101250.28;7396754;19;1821;-37
2023/09/28 04:15:24;;;;;;;;;;;;;;;23.95;42.81;101252.84;7399094;19;1305;-37
2023/09/28 04:17:52;;;;;;;;;;;;;;;23.95;42.81;101255.53;7398444;19;1323;-37
2023/09/28 04:20:20;;;;;;;;;;;;;;;23.81;44.05;101238.91;7398363;19;1841;-37
2023/09/28 04:22:48;;;;;;;;;;;;;;;23.79;43.94;101256.25;7397974;19;1641;-37
2023/09/28 04:25:18;;;;;;;;;;;;;;;23.92;43.60;101247.75;7398210;19;1359;-37
2023/09/28 04:27:47;;;;;;;;;;;;;;;23.91;43.71;101262.25;7399809;19;1435;-37
2023/09/28 04:30:15;;;;;;;;;;;;;;;23.99;43.55;101256.91;7399065;19;1470;-37
2023/09/28 04:32:46;;;;;;;;;;;;;;;23.95;43.50;101253.66;7397094;19;1371;-37
2023/09/28 04:35:15;;;;;;;;;;;;;;;24.05;43.55;101261.69;7398118;19;1427;-37
2023/09/28 04:37:43;;;;;;;;;;;;;;;23.93;43.85;101247.59;7398299;19;1253;-37
2023/09/28 04:40:13;;;;;;;;;;;;;;;23.88;43.91;101266.13;7397397;19;1841;-37
2023/09/28 04:42:41;;;;;;;;;;;;;;;23.86;44.32;101276.25;7398246;19;1322;-37
2023/09/28 04:45:10;;;;;;;;;;;;;;;23.92;44.25;101264.81;7397831;19;1768;-37
2023/09/28 04:47:38;;;;;;;;;;;;;;;23.98;44.04;101266.03;7399474;19;1351;-37
2023/09/28 04:50:09;;;;;;;;;;;;;;;23.87;44.33;101277.91;7398892;19;1589;-37
2023/09/28 04:52:38;;;;;;;;;;;;;;;24.04;44.49;101272.69;7397690;19;1324;-37
2023/09/28 04:55:09;;;;;;;;;;;;;;;24.09;44.32;101281.97;7399266;19;1578;-37
2023/09/28 04:57:38;;;;;;;;;;;;;;;24.01;45.32;101268.41;7400069;19;1062;-37
2023/09/28 05:00:08;;;;;;;;;;;;;;;23.86;45.02;101283.50;7395766;19;1846;-37
2023/09/28 05:02:37;;;;;;;;;;;;;;;23.47;40.41;101283.75;7396304;19;1332;-37
2023/09/28 05:05:06;;;;;;;;;;;;;;;23.20;41.68;101288.19;7393073;19;1702;-37
2023/09/28 05:07:37;;;;;;;;;;;;;;;22.97;41.36;101296.63;7395229;19;1352;-37
2023/09/28 05:10:07;;;;;;;;;;;;;;;22.97;40.42;101304.72;7378836;19;1667;-37
2023/09/28 05:12:35;;;;;;;;;;;;;;;23.05;39.65;101308.56;7393421;19;1616;-37
2023/09/28 05:15:04;;;;;;;;;;;;;;;22.98;39.34;101303.75;7393787;19;1568;-37
2023/09/28 05:17:32;;;;;;;;;;;;;;;22.94;39.25;101306.84;7392537;19;1315;-37
2023/09/28 05:20:01;;;;;;;;;;;;;;;23.00;39.17;101312.53;7392947;19;1859;-37
2023/09/28 05:22:29;;;;;;;;;;;;;;;22.82;39.60;101319.72;7391368;19;1845;-39
2023/09/28 05:25:00;;;;;;;;;;;;;;;22.41;39.38;101311.00;7394503;19;1511;-37
2023/09/28 05:27:28;;;;;;;;;;;;;;;21.29;41.32;101322.09;7391318;19;1956;-37
2023/09/28 05:29:57;;;;;;;;;;;;;;;20.74;42.15;101329.63;7394337;19;1356;-37
2023/09/28 05:32:25;;;;;;;;;;;;;;;20.74;42.25;101338.53;7394891;19;1325;-36
2023/09/28 05:34:53;;;;;;;;;;;;;;;21.58;41.57;101313.25;7388422;19;1347;-38
2023/09/28 05:37:21;;;;;;;;;;;;;;;22.05;40.33;101325.03;7392938;19;2470;-37
2023/09/28 05:39:50;;;;;;;;;;;;;;;22.33;40.08;101327.06;7393427;19;1868;-37
2023/09/28 05:42:21;;;;;;;;;;;;;;;22.51;39.54;101324.47;7393380;19;1427;-37
2023/09/28 05:44:49;;;;;;;;;;;;;;;22.57;39.49;101319.34;7391196;19;2430;-37
2023/09/28 05:47:20;;;;;;;;;;;;;;;22.73;39.50;101332.19;7394182;19;1368;-37
2023/09/28 05:49:49;;;;;;;;;;;;;;;22.78;39.34;101329.94;7397252;19;1299;-37
2023/09/28 05:52:18;;;;;;;;;;;;;;;22.83;39.23;101321.38;7395009;19;1328;-37
2023/09/28 05:54:46;;;;;;;;;;;;;;;22.87;39.31;101333.56;7393839;19;1637;-37
2023/09/28 05:57:15;;;;;;;;;;;;;;;22.97;39.28;101318.22;7395584;19;1700;-38
2023/09/28 05:59:46;;;;;;;;;;;;;;;23.05;39.19;101324.75;7393145;19;1842;-37
2023/09/28 06:02:14;;;;;;;;;;;;;;;23.13;39.12;101324.84;7395164;19;1431;-37
2023/09/28 06:04:43;;;;;;;;;;;;;;;23.18;39.24;101336.91;7392567;19;1211;-37
2023/09/28 06:07:11;;;;;;;;;;;;;;;23.26;39.46;101327.19;7392023;19;1321;-37
2023/09/28 06:09:40;;;;;;;;;;;;;;;23.41;39.37;101321.13;7377570;19;1635;-37
2023/09/28 06:12:08;;;;;;;;;;;;;;;23.22;39.63;101326.66;7392219;19;1471;-37
2023/09/28 06:14:37;;;;;;;;;;;;;;;23.08;39.87;101324.44;7392897;19;1480;-37
2023/09/28 06:17:08;;;;;;;;;;;;;;;23.01;40.17;101329.56;7391341;19;1429;-37
2023/09/28 06:19:37;;;;;;;;;;;;;;;23.21;39.84;101335.75;7393177;19;1384;-37
2023/09/28 06:22:09;;;;;;;;;;;;;;;23.22;39.86;101332.91;7393028;19;1858;-37
2023/09/28 06:24:37;;;;;;;;;;;;;;;23.26;39.77;101333.47;7393980;19;1663;-37
2023/09/28 06:27:06;;;;;;;;;;;;;;;23.28;39.84;101344.94;7392600;19;1565;-37
2023/09/28 06:29:34;;;;;;;;;;;;;;;23.38;39.78;101336.81;7393437;19;1451;-37
2023/09/28 06:32:04;;;;;;;;;;;;;;;23.27;40.07;101337.84;7394306;19;1863;-37
2023/09/28 06:34:35;;;;;;;;;;;;;;;23.41;39.86;101348.13;7393288;19;1369;-37
2023/09/28 06:37:03;;;;;;;;;;;;;;;23.39;39.94;101335.78;7394352;19;1542;-37
2023/09/28 06:39:31;;;;;;;;;;;;;;;23.30;40.08;101337.56;7393867;19;1513;-37
2023/09/28 06:42:00;;;;;;;;;;;;;;;23.18;40.35;101341.47;7391652;19;1841;-37
2023/09/28 06:44:28;;;;;;;;;;;;;;;23.31;40.34;101331.13;7390646;19;1605;-37
2023/09/28 06:46:57;;;;;;;;;;;;;;;23.39;40.22;101339.31;7394115;19;1313;-37
2023/09/28 06:49:26;;;;;;;;;;;;;;;23.35;40.40;101337.09;7393205;19;1342;-37
2023/09/28 06:51:57;;;;;;;;;;;;;;;23.48;40.58;101336.75;7393663;19;1268;-37
2023/09/28 06:54:25;;;;;;;;;;;;;;;23.55;40.63;101327.88;7391784;19;1628;-37
2023/09/28 06:56:53;;;;;;;;;;;;;;;23.51;40.52;101331.03;7393526;19;1510;-37
2023/09/28 06:59:22;;;;;;;;;;;;;;;23.71;40.35;101334.44;7392200;19;1329;-37
2023/09/28 07:01:50;;;;;;;;;;;;;;;23.49;40.67;101333.88;7392142;19;1857;-37
2023/09/28 07:04:18;;;;;;;;;;;;;;;23.37;40.82;101335.94;7392525;19;1577;-37
2023/09/28 07:06:48;;;;;;;;;;;;;;;23.39;41.13;101330.38;7399063;19;1232;-37
2023/09/28 07:09:19;;;;;;;;;;;;;;;23.60;40.72;101320.16;7397427;19;1249;-37
2023/09/28 07:11:47;;;;;;;;;;;;;;;23.80;40.36;101334.41;7394675;19;1741;-37
2023/09/28 07:14:16;;;;;;;;;;;;;;;23.97;40.51;101321.94;7401583;19;1399;-38
2023/09/28 07:16:44;;;;;;;;;;;;;;;23.84;41.23;101323.31;7398177;19;1474;-37
2023/09/28 07:19:12;;;;;;;;;;;;;;;23.79;40.36;101318.34;7399346;19;1383;-37
2023/09/28 07:21:41;;;;;;;;;;;;;;;23.77;40.95;101323.03;7397020;19;1851;-37
2023/09/28 07:24:09;;;;;;;;;;;;;;;23.69;40.65;101326.50;7400215;19;1393;-38
2023/09/28 07:26:41;;;;;;;;;;;;;;;23.72;40.53;101317.25;7399477;19;1368;-37
2023/09/28 07:29:10;;;;;;;;;;;;;;;23.75;40.54;101328.59;7398614;19;1241;-37
2023/09/28 07:31:38;;;;;;;;;;;;;;;23.81;40.75;101333.44;7400478;19;1537;-46
2023/09/28 07:34:07;;;;;;;;;;;;;;;23.82;40.71;101327.00;7398359;19;1253;-38
2023/09/28 07:36:35;;;;;;;;;;;;;;;23.90;40.50;101320.00;7399479;19;1372;-38
2023/09/28 07:39:05;;;;;;;;;;;;;;;23.97;40.85;101321.06;7397287;19;1249;-37
2023/09/28 07:41:33;;;;;;;;;;;;;;;23.87;40.79;101309.50;7397365;19;1888;-37
2023/09/28 07:44:04;;;;;;;;;;;;;;;24.00;40.46;101313.50;7398098;19;1555;-37
2023/09/28 07:46:33;;;;;;;;;;;;;;;24.10;40.22;101321.53;7395637;19;1507;-37
2023/09/28 07:49:02;;;;;;;;;;;;;;;24.34;40.02;101314.63;7398455;19;1737;-37
2023/09/28 07:51:30;;;;;;;;;;;;;;;24.18;40.51;101308.06;7398596;19;1467;-38
2023/09/28 07:53:58;;;;;;;;;;;;;;;24.00;40.68;101305.41;7400059;19;1580;-37
2023/09/28 07:56:27;;;;;;;;;;;;;;;23.88;40.55;101312.03;7393334;19;1819;-37
2023/09/28 07:58:55;;;;;;;;;;;;;;;24.09;40.40;101306.31;7397459;19;1445;-37
2023/09/28 08:01:26;;;;;;;;;;;;;;;24.16;40.38;101303.84;7390038;19;2001;-38
2023/09/28 08:03:55;;;;;;;;;;;;;;;24.20;40.39;101322.28;7387843;19;1383;-37
2023/09/28 08:06:23;;;;;;;;;;;;;;;24.22;40.02;101319.44;7392961;19;1481;-37
2023/09/28 08:08:53;;;;;;;;;;;;;;;24.28;39.32;101317.97;7389848;19;1379;-37
2023/09/28 08:11:22;;;;;;;;;;;;;;;24.30;40.03;101307.84;7376835;19;1510;-37
2023/09/28 08:13:50;;;;;;;;;;;;;;;24.46;39.56;101299.84;7398174;19;1411;-37
2023/09/28 08:16:18;;;;;;;;;;;;;;;24.45;39.20;101305.38;7397581;19;1465;-38
2023/09/28 08:18:49;;;;;;;;;;;;;;;24.51;39.17;101286.72;7394790;19;1343;-37
2023/09/28 08:21:18;;;;;;;;;;;;;;;24.42;39.74;101311.97;7396195;19;1861;-37
2023/09/28 08:23:46;;;;;;;;;;;;;;;24.45;40.01;101317.03;7395209;19;1472;-37
2023/09/28 08:26:15;;;;;;;;;;;;;;;24.52;39.50;101306.50;7391629;19;1418;-37
2023/09/28 08:28:43;;;;;;;;;;;;;;;24.40;39.74;101305.88;7396890;19;1469;-37
2023/09/28 08:31:12;;;;;;;;;;;;;;;24.57;38.57;101291.50;7383505;19;1224;-37
2023/09/28 08:33:41;;;;;;;;;;;;;;;24.60;39.12;101291.16;7394346;19;1340;-38
2023/09/28 08:36:13;;;;;;;;;;;;;;;24.58;39.27;101298.59;7398667;19;1007;-37
2023/09/28 08:38:41;;;;;;;;;;;;;;;24.67;38.98;101294.09;7391983;19;1665;-37
2023/09/28 08:41:11;;;;;;;;;;;;;;;24.60;39.56;101295.72;7395970;19;1853;-37
2023/09/28 08:43:42;;;;;;;;;;;;;;;24.53;39.26;101300.06;7396214;19;1648;-37
2023/09/28 08:46:12;;;;;;;;;;;;;;;24.72;39.13;101299.84;7397140;19;1594;-37
2023/09/28 08:48:43;;;;;;;;;;;;;;;24.73;39.49;101295.28;7397694;19;1651;-37
2023/09/28 08:51:15;;;;;;;;;;;;;;;24.54;39.22;101304.47;7397283;19;1827;-37
2023/09/28 08:53:43;;;;;;;;;;;;;;;24.58;39.54;101287.78;7396934;19;1590;-37
2023/09/28 08:56:12;;;;;;;;;;;;;;;24.85;38.83;101282.31;7394481;19;1519;-37
2023/09/28 08:58:42;;;;;;;;;;;;;;;24.87;38.99;101299.25;7394257;19;1341;-37
2023/09/28 09:01:10;;;;;;;;;;;;;;;24.67;39.16;101282.41;7396760;19;1825;-37
2023/09/28 09:03:40;;;;;;;;;;;;;;;24.72;38.96;101280.06;7393432;19;1308;-37
2023/09/28 09:06:11;;;;;;;;;;;;;;;24.75;39.18;101274.34;7394660;19;1318;-37
2023/09/28 09:08:45;;;;;;;;;;;;;;;24.77;39.19;101275.00;7396143;19;1455;-37
2023/09/28 09:11:16;;;;;;;;;;;;;;;24.89;39.06;101279.16;7381943;19;1427;-37
2023/09/28 09:13:51;;;;;;;;;;;;;;;24.74;39.01;101276.19;7395635;19;1810;-37
2023/09/28 09:16:19;;;;;;;;;;;;;;;24.69;39.45;101283.09;7396532;19;1410;-37
2023/09/28 09:18:49;;;;;;;;;;;;;;;24.82;39.01;101283.50;7396085;19;1636;-37
2023/09/28 09:21:18;;;;;;;;;;;;;;;24.78;39.22;101282.13;7394381;19;1851;-37
2023/09/28 09:24:02;;;;;;;;;;;;;;;24.87;39.12;101274.91;7393848;19;1452;-37
2023/09/28 09:26:30;;;;;;;;;;;;;;;25.03;38.67;101280.41;7396859;19;1437;-37
2023/09/28 09:29:00;;;;;;;;;;;;;;;24.91;38.84;101276.25;7395640;19;1695;-37
2023/09/28 09:31:28;;;;;;;;;;;;;;;24.90;38.96;101259.19;7398153;19;1436;-37
2023/09/28 09:33:57;;;;;;;;;;;;;;;24.87;38.88;101274.91;7397952;19;1526;-37
2023/09/28 09:36:25;;;;;;;;;;;;;;;24.77;39.44;101270.47;7396435;19;1696;-38
2023/09/28 09:38:58;;;;;;;;;;;;;;;24.74;38.91;101284.31;7395721;19;1381;-37
2023/09/28 09:41:26;;;;;;;;;;;;;;;24.76;39.18;101268.75;7395146;19;1843;-37
2023/09/28 09:43:54;;;;;;;;;;;;;;;24.68;38.76;101267.88;7394780;19;1353;-37
2023/09/28 09:46:23;;;;;;;;;;;;;;;24.72;39.27;101255.75;7393038;19;1410;-38
2023/09/28 09:48:51;;;;;;;;;;;;;;;24.70;38.71;101257.75;7393026;19;1380;-37
2023/09/28 09:51:21;;;;;;;;;;;;;;;24.72;39.32;101258.44;7393084;19;1684;-37
2023/09/28 09:53:49;;;;;;;;;;;;;;;24.69;38.55;101256.03;7392739;19;1771;-37
2023/09/28 09:56:20;;;;;;;;;;;;;;;24.80;38.15;101244.94;7392441;19;1787;-37
2023/09/28 09:58:50;;;;;;;;;;;;;;;24.71;38.82;101243.22;7392747;19;1461;-37
2023/09/28 10:01:19;;;;;;;;;;;;;;;24.70;38.83;101228.84;7394040;19;1857;-38
2023/09/28 10:03:50;;;;;;;;;;;;;;;24.77;38.91;101229.03;7392217;19;1648;-37
2023/09/28 10:06:19;;;;;;;;;;;;;;;24.82;38.85;101240.22;7396822;19;1284;-37
2023/09/28 10:08:49;;;;;;;;;;;;;;;24.94;39.75;101224.56;7391749;19;1377;-37
2023/09/28 10:11:20;;;;;;;;;;;;;;;24.88;39.86;101223.34;7378842;19;1466;-37
2023/09/28 10:13:50;;;;;;;;;;;;;;;24.84;40.03;101213.03;7393188;19;1736;-37
2023/09/28 10:16:19;;;;;;;;;;;;;;;24.69;40.80;101223.59;7392303;19;1770;-37
2023/09/28 10:18:49;;;;;;;;;;;;;;;24.51;42.01;101211.03;7392120;19;1396;-37
2023/09/28 10:21:18;;;;;;;;;;;;;;;24.71;41.36;101217.03;7391502;19;1863;-37
2023/09/28 10:23:47;;;;;;;;;;;;;;;24.78;42.81;101201.84;7391014;19;1565;-37
2023/09/28 10:26:16;;;;;;;;;;;;;;;25.06;42.93;101200.75;7390272;19;1431;-39
2023/09/28 10:28:59;;;;;;;;;;;;;;;25.00;42.10;101194.13;7395021;19;1260;-37
2023/09/28 10:31:30;;;;;;;;;;;;;;;24.92;42.13;101196.81;7385460;19;1483;-37
2023/09/28 10:33:59;;;;;;;;;;;;;;;24.87;42.53;101200.03;7389442;19;1391;-37
2023/09/28 10:36:28;;;;;;;;;;;;;;;24.81;42.45;101185.28;7390711;19;1729;-37
2023/09/28 10:39:16;;;;;;;;;;;;;;;25.06;41.86;101189.91;7393005;19;1652;-37
2023/09/28 10:41:49;;;;;;;;;;;;;;;24.82;42.54;101186.13;7400536;19;1853;-37
2023/09/28 10:44:18;;;;;;;;;;;;;;;24.77;43.07;101183.06;7402132;19;1585;-37
2023/09/28 10:46:50;;;;;;;;;;;;;;;24.69;44.25;101180.31;7403036;19;1643;-37
2023/09/28 10:49:24;;;;;;;;;;;;;;;24.71;43.82;101171.06;7400541;19;1687;-37
2023/09/28 10:51:54;;;;;;;;;;;;;;;24.74;43.62;101173.41;7394233;19;1638;-36
2023/09/28 10:54:24;;;;;;;;;;;;;;;24.91;43.27;101168.06;7397541;19;1599;-37
2023/09/28 10:56:52;;;;;;;;;;;;;;;24.88;42.92;101171.94;7396259;19;1608;-36
2023/09/28 10:59:20;;;;;;;;;;;;;;;24.75;43.54;101149.91;7398923;19;1648;-36
2023/09/28 11:01:51;;;;;;;;;;;;;;;24.70;43.77;101172.06;7398334;19;1845;-36
2023/09/28 11:04:20;;;;;;;;;;;;;;;24.71;43.86;101165.66;7399086;19;1443;-36
2023/09/28 11:06:49;;;;;;;;;;;;;;;24.74;43.55;101161.75;7395699;19;1731;-37
2023/09/28 11:09:19;;;;;;;;;;;;;;;24.67;44.05;101158.00;7401004;19;1316;-36
2023/09/28 11:11:49;;;;;;;;;;;;;;;24.47;44.37;101100.63;7403153;19;1687;-36
2023/09/28 11:14:17;;;;;;;;;;;;;;;24.96;43.88;101160.31;7402635;19;1368;-37
2023/09/28 11:16:49;;;;;;;;;;;;;;;24.84;43.49;101154.34;7403930;19;992;-37
2023/09/28 11:19:20;;;;;;;;;;;;;;;24.85;43.55;101158.75;7401799;19;1503;-36
2023/09/28 11:21:49;;;;;;;;;;;;;;;24.94;44.10;101160.47;7401775;19;1841;-37
2023/09/28 11:24:17;;;;;;;;;;;;;;;24.73;44.33;101162.75;7400638;19;1566;-36
2023/09/28 11:26:45;;;;;;;;;;;;;;;24.71;44.61;101160.25;7402149;19;1602;-37
2023/09/28 11:29:14;;;;;;;;;;;;;;;25.08;43.79;101152.72;7400446;19;1618;-37
2023/09/28 11:31:50;;;;;;;;;;;;;;;25.15;43.10;101151.88;7399431;19;1598;-37
2023/09/28 11:34:32;;;;;;;;;;;;;;;25.12;43.40;101133.25;7400409;19;1660;-37
2023/09/28 11:37:01;;;;;;;;;;;;;;;25.04;43.83;101141.38;7401454;19;1722;-37
2023/09/28 11:39:30;;;;;;;;;;;;;;;24.93;43.79;101129.03;7400686;19;1395;-36
2023/09/28 11:41:59;;;;;;;;;;;;;;;24.98;43.20;101132.06;7401539;19;1857;-36
2023/09/28 11:44:28;;;;;;;;;;;;;;;25.16;42.79;101140.03;7399778;19;1729;-37
2023/09/28 11:46:57;;;;;;;;;;;;;;;25.06;43.44;101133.09;7400846;19;1527;-37
2023/09/28 11:49:26;;;;;;;;;;;;;;;24.87;43.70;101139.63;7400266;19;1569;-37
2023/09/28 11:51:58;;;;;;;;;;;;;;;24.86;43.54;101148.78;7398897;19;1815;-37
2023/09/28 11:54:26;;;;;;;;;;;;;;;24.77;44.01;101124.41;7397554;19;1663;-37
2023/09/28 11:56:54;;;;;;;;;;;;;;;24.69;44.28;101135.22;7401028;19;1392;-36
2023/09/28 11:59:23;;;;;;;;;;;;;;;24.83;44.42;101133.75;7399797;19;1784;-36
2023/09/28 12:01:52;;;;;;;;;;;;;;;24.82;44.31;101123.91;7398863;19;1857;-36
2023/09/28 12:04:21;;;;;;;;;;;;;;;24.85;44.05;101129.00;7396300;19;1310;-37
2023/09/28 12:06:49;;;;;;;;;;;;;;;24.99;43.49;101112.13;7381610;19;1626;-39
2023/09/28 12:09:20;;;;;;;;;;;;;;;25.21;42.81;101123.31;7399299;19;1420;-39
2023/09/28 12:11:49;;;;;;;;;;;;;;;25.36;42.75;101123.50;7400886;19;1412;-39
2023/09/28 12:14:19;;;;;;;;;;;;;;;25.33;42.78;101119.28;7398567;19;1697;-40
2023/09/28 12:16:47;;;;;;;;;;;;;;;25.33;42.55;101119.28;7397640;19;1384;-39
2023/09/28 12:19:15;;;;;;;;;;;;;;;25.29;43.36;101117.94;7398345;19;1629;-39
2023/09/28 12:21:45;;;;;;;;;;;;;;;25.18;43.32;101104.69;7397760;19;1853;-39
2023/09/28 12:24:13;;;;;;;;;;;;;;;25.20;42.34;101110.78;7396929;19;1715;-39
2023/09/28 12:26:44;;;;;;;;;;;;;;;25.17;42.75;101113.84;7399179;19;1858;-39
2023/09/28 12:29:26;;;;;;;;;;;;;;;25.22;42.34;101121.47;7400047;19;1532;-37
2023/09/28 12:31:54;;;;;;;;;;;;;;;25.20;42.31;101111.63;7397910;19;1650;-37
2023/09/28 12:34:25;;;;;;;;;;;;;;;25.23;42.16;101123.16;7395061;19;1696;-37
2023/09/28 12:36:53;;;;;;;;;;;;;;;25.07;42.38;101123.94;7399567;19;1390;-37
2023/09/28 12:39:22;;;;;;;;;;;;;;;25.04;42.31;101102.66;7401486;19;1572;-37
2023/09/28 12:41:58;;;;;;;;;;;;;;;25.02;42.25;101105.53;7400887;19;1858;-37
2023/09/28 12:44:28;;;;;;;;;;;;;;;25.13;42.22;101094.38;7398304;19;1499;-37
2023/09/28 12:46:56;;;;;;;;;;;;;;;24.59;42.28;101018.22;7399607;19;1490;-37
2023/09/28 12:49:24;;;;;;;;;;;;;;;25.07;42.28;101102.31;7399572;19;1398;-37
2023/09/28 12:51:53;;;;;;;;;;;;;;;24.97;42.26;101092.50;7401119;19;1085;-37
2023/09/28 12:54:21;;;;;;;;;;;;;;;25.03;42.00;101099.09;7396630;19;2498;-37
2023/09/28 12:56:51;;;;;;;;;;;;;;;25.07;41.90;101103.16;7396248;19;1554;-37